createdAt,value
2023-09-08T00:00:10.422Z,8.57
2023-09-08T00:02:37.769Z,10.40
2023-09-08T00:05:05.237Z,12.52
2023-09-08T00:07:32.444Z,9.27
2023-09-08T00:09:59.710Z,10.00
2023-09-08T00:12:26.949Z,11.88
2023-09-08T00:14:54.117Z,9.70
2023-09-08T00:17:21.336Z,13.05
2023-09-08T00:19:48.646Z,13.52
2023-09-08T00:22:15.768Z,8.52
2023-09-08T00:24:43.053Z,10.20
2023-09-08T00:27:10.955Z,11.98
2023-09-08T00:29:38.186Z,10.02
2023-09-08T00:32:05.756Z,9.73
2023-09-08T00:34:33.289Z,11.43
2023-09-08T00:37:05.980Z,9.90
2023-09-08T00:39:33.283Z,9.40
2023-09-08T00:42:00.564Z,12.48
2023-09-08T00:44:27.737Z,8.63
2023-09-08T00:46:55.061Z,10.75
2023-09-08T00:49:22.669Z,8.45
2023-09-08T00:51:49.994Z,11.35
2023-09-08T00:54:17.388Z,20.63
2023-09-08T00:56:47.910Z,8.95
2023-09-08T00:59:15.209Z,9.10
2023-09-08T01:01:42.567Z,11.43
2023-09-08T01:04:09.990Z,13.63
2023-09-08T01:06:38.491Z,10.38
2023-09-08T01:09:06.506Z,11.80
2023-09-08T01:11:33.845Z,10.50
2023-09-08T01:14:01.105Z,12.27
2023-09-08T01:16:28.458Z,11.30
2023-09-08T01:18:57.946Z,9.57
2023-09-08T01:21:37.401Z,10.23
2023-09-08T01:24:33.657Z,11.50
2023-09-08T01:27:01.290Z,11.32
2023-09-08T01:29:31.117Z,10.85
2023-09-08T01:31:58.675Z,13.07
2023-09-08T01:34:26.059Z,10.77
2023-09-08T01:36:53.512Z,10.60
2023-09-08T01:39:20.797Z,15.10
2023-09-08T01:41:47.931Z,10.90
2023-09-08T01:44:15.095Z,9.65
2023-09-08T01:46:42.427Z,11.52
2023-09-08T01:49:09.632Z,11.98
2023-09-08T01:51:36.870Z,13.65
2023-09-08T01:54:04.220Z,10.88
2023-09-08T01:56:31.346Z,9.65
2023-09-08T01:58:58.540Z,11.70
2023-09-08T02:01:25.744Z,10.40
2023-09-08T02:03:52.922Z,11.93
2023-09-08T02:06:20.171Z,12.15
2023-09-08T02:08:47.305Z,12.63
2023-09-08T02:11:14.563Z,12.27
2023-09-08T02:13:43.547Z,12.55
2023-09-08T02:16:17.643Z,13.02
2023-09-08T02:18:46.052Z,10.88
2023-09-08T02:21:13.372Z,11.40
2023-09-08T02:23:40.547Z,14.00
2023-09-08T02:26:07.777Z,10.13
2023-09-08T02:28:35.213Z,12.65
2023-09-08T02:31:02.736Z,14.07
2023-09-08T02:33:30.007Z,11.75
2023-09-08T02:36:03.352Z,11.90
2023-09-08T02:38:30.726Z,13.73
2023-09-08T02:40:58.082Z,11.85
2023-09-08T02:43:25.338Z,12.48
2023-09-08T02:45:52.694Z,11.68
2023-09-08T02:48:20.106Z,13.77
2023-09-08T02:50:47.265Z,13.88
2023-09-08T02:53:14.482Z,19.38
2023-09-08T02:55:41.815Z,15.63
2023-09-08T02:58:09.062Z,17.05
2023-09-08T03:00:36.421Z,20.48
2023-09-08T03:03:04.582Z,14.93
2023-09-08T03:05:33.211Z,13.13
2023-09-08T03:08:00.590Z,13.25
2023-09-08T03:10:29.701Z,14.32
2023-09-08T03:12:57.063Z,12.48
2023-09-08T03:15:24.299Z,12.63
2023-09-08T03:17:51.591Z,14.10
2023-09-08T03:20:18.763Z,13.48
2023-09-08T03:22:45.884Z,15.90
2023-09-08T03:25:15.550Z,18.45
2023-09-08T03:27:42.727Z,12.82
2023-09-08T03:30:10.283Z,14.10
2023-09-08T03:32:39.132Z,12.35
2023-09-08T03:35:10.472Z,13.23
2023-09-08T03:37:37.800Z,11.88
2023-09-08T03:40:08.378Z,13.43
2023-09-08T03:42:36.062Z,14.53
2023-09-08T03:45:03.369Z,14.20
2023-09-08T03:47:30.828Z,12.93
2023-09-08T03:49:58.063Z,13.98
2023-09-08T03:52:25.921Z,13.20
2023-09-08T03:54:53.177Z,15.30
2023-09-08T03:57:20.360Z,14.10
2023-09-08T03:59:50.748Z,15.27
2023-09-08T04:02:18.099Z,13.68
2023-09-08T04:04:45.275Z,14.25
2023-09-08T04:07:12.706Z,15.30
2023-09-08T04:09:40.096Z,14.55
2023-09-08T04:12:10.448Z,16.40
2023-09-08T04:14:37.918Z,13.43
2023-09-08T04:17:05.301Z,13.57
2023-09-08T04:19:33.441Z,12.88
2023-09-08T04:22:00.754Z,19.00
2023-09-08T04:24:28.114Z,14.15
2023-09-08T04:26:55.277Z,19.08
2023-09-08T04:29:22.625Z,15.90
2023-09-08T04:31:49.848Z,14.50
2023-09-08T04:34:17.089Z,16.25
2023-09-08T04:36:44.196Z,37.72
2023-09-08T04:39:12.719Z,15.18
2023-09-08T04:41:40.148Z,13.82
2023-09-08T04:44:07.359Z,20.33
2023-09-08T04:46:36.954Z,14.82
2023-09-08T04:49:04.111Z,14.95
2023-09-08T04:51:31.371Z,12.32
2023-09-08T04:53:58.500Z,16.73
2023-09-08T04:56:25.740Z,16.23
2023-09-08T04:58:53.813Z,17.70
2023-09-08T05:01:20.984Z,16.58
2023-09-08T05:03:48.450Z,17.10
2023-09-08T05:06:15.732Z,15.82
2023-09-08T05:08:43.087Z,14.75
2023-09-08T05:11:10.403Z,15.13
2023-09-08T05:13:37.538Z,23.15
2023-09-08T05:16:12.989Z,16.13
2023-09-08T05:18:41.132Z,15.63
2023-09-08T05:21:08.963Z,20.67
2023-09-08T05:23:36.112Z,16.60
2023-09-08T05:26:03.323Z,15.63
2023-09-08T05:28:30.590Z,18.52
2023-09-08T05:30:58.071Z,16.65
2023-09-08T05:33:25.443Z,15.73
2023-09-08T05:35:52.742Z,13.52
2023-09-08T05:38:20.117Z,15.20
2023-09-08T05:40:47.428Z,18.27
2023-09-08T05:43:14.672Z,19.75
2023-09-08T05:45:42.023Z,16.70
2023-09-08T05:48:09.379Z,17.00
2023-09-08T05:50:37.773Z,27.45
2023-09-08T05:53:05.221Z,12.10
2023-09-08T05:55:32.554Z,42.83
2023-09-08T05:57:59.919Z,23.63
2023-09-08T06:00:27.479Z,28.23
2023-09-08T06:02:54.867Z,28.77
2023-09-08T06:05:22.090Z,26.00
2023-09-08T06:08:04.649Z,14.13
2023-09-08T06:10:34.223Z,15.00
2023-09-08T06:13:02.751Z,16.73
2023-09-08T06:15:30.145Z,18.17
2023-09-08T06:17:57.546Z,14.63
2023-09-08T06:20:26.158Z,20.48
2023-09-08T06:22:53.329Z,30.00
2023-09-08T06:25:20.532Z,13.02
2023-09-08T06:27:47.873Z,21.90
2023-09-08T06:30:17.324Z,20.38
2023-09-08T06:32:44.856Z,20.15
2023-09-08T06:35:12.216Z,36.70
2023-09-08T06:37:40.281Z,18.33
2023-09-08T06:40:08.124Z,41.65
2023-09-08T06:42:35.452Z,35.00
2023-09-08T06:45:03.153Z,15.88
2023-09-08T06:47:30.480Z,14.00
2023-09-08T06:49:57.709Z,22.48
2023-09-08T06:52:25.567Z,16.60
2023-09-08T06:54:52.894Z,17.35
2023-09-08T06:57:23.140Z,20.45
2023-09-08T06:59:50.492Z,17.20
2023-09-08T07:02:17.974Z,16.70
2023-09-08T07:04:45.356Z,16.05
2023-09-08T07:07:12.683Z,14.63
2023-09-08T07:09:40.989Z,14.93
2023-09-08T07:12:08.195Z,12.35
2023-09-08T07:14:35.772Z,17.90
2023-09-08T07:17:03.224Z,13.77
2023-09-08T07:19:30.631Z,21.33
2023-09-08T07:21:57.957Z,41.95
2023-09-08T07:24:25.410Z,17.25
2023-09-08T07:26:52.564Z,20.88
2023-09-08T07:29:19.745Z,27.85
2023-09-08T07:31:47.127Z,12.93
2023-09-08T07:34:14.294Z,14.35
2023-09-08T07:36:41.587Z,18.67
2023-09-08T07:39:08.808Z,31.23
2023-09-08T07:41:36.165Z,18.05
2023-09-08T07:44:03.717Z,16.40
2023-09-08T07:46:31.047Z,18.20
2023-09-08T07:48:59.723Z,24.50
2023-09-08T07:51:28.214Z,14.63
2023-09-08T07:53:55.433Z,13.93
2023-09-08T07:56:23.372Z,43.95
2023-09-08T07:58:50.752Z,12.68
2023-09-08T08:01:17.960Z,17.00
2023-09-08T08:03:45.255Z,28.70
2023-09-08T08:06:12.478Z,16.83
2023-09-08T08:08:40.245Z,53.20
2023-09-08T08:11:12.811Z,30.00
2023-09-08T08:13:40.086Z,16.27
2023-09-08T08:16:07.652Z,36.90
2023-09-08T08:18:35.404Z,12.85
2023-09-08T08:21:04.576Z,14.07
2023-09-08T08:23:32.690Z,26.88
2023-09-08T08:26:01.254Z,13.75
2023-09-08T08:28:28.482Z,15.00
2023-09-08T08:30:57.147Z,16.15
2023-09-08T08:33:27.103Z,14.20
2023-09-08T08:35:54.808Z,28.30
2023-09-08T08:38:22.333Z,29.30
2023-09-08T08:40:49.665Z,34.90
2023-09-08T08:43:16.993Z,12.55
2023-09-08T08:45:45.911Z,19.02
2023-09-08T08:48:15.483Z,16.70
2023-09-08T08:50:45.464Z,12.75
2023-09-08T08:53:13.991Z,19.90
2023-09-08T08:55:41.926Z,20.38
2023-09-08T08:58:09.456Z,12.90
2023-09-08T09:00:40.269Z,14.82
2023-09-08T09:03:15.576Z,27.80
2023-09-08T09:05:48.159Z,28.13
2023-09-08T09:08:19.820Z,23.92
2023-09-08T09:10:47.027Z,12.68
2023-09-08T09:13:14.344Z,25.80
2023-09-08T09:15:41.681Z,22.67
2023-09-08T09:18:09.619Z,10.68
2023-09-08T09:20:37.295Z,12.60
2023-09-08T09:23:04.849Z,16.58
2023-09-08T09:25:32.962Z,17.80
2023-09-08T09:28:02.412Z,11.93
2023-09-08T09:30:48.064Z,9.82
2023-09-08T09:33:15.832Z,11.70
2023-09-08T09:35:47.918Z,12.43
2023-09-08T09:38:15.704Z,12.70
2023-09-08T09:40:42.894Z,14.43
2023-09-08T09:43:12.774Z,11.70
2023-09-08T09:45:41.423Z,25.38
2023-09-08T09:48:10.187Z,18.58
2023-09-08T09:50:44.470Z,19.02
2023-09-08T09:53:14.230Z,9.68
2023-09-08T09:55:43.060Z,10.85
2023-09-08T09:58:11.996Z,11.18
2023-09-08T10:00:42.608Z,10.30
2023-09-08T10:03:12.074Z,12.48
2023-09-08T10:05:39.289Z,9.00
2023-09-08T10:08:07.092Z,9.13
2023-09-08T10:10:37.624Z,9.13
2023-09-08T10:13:07.925Z,11.75
2023-09-08T10:15:35.645Z,7.45
2023-09-08T10:18:06.452Z,15.77
2023-09-08T10:20:36.143Z,10.82
2023-09-08T10:23:17.013Z,9.70
2023-09-08T10:25:50.686Z,8.82
2023-09-08T10:28:18.814Z,10.45
2023-09-08T10:30:47.818Z,9.27
2023-09-08T10:33:16.539Z,9.82
2023-09-08T10:35:44.993Z,9.57
2023-09-08T10:38:29.929Z,7.15
2023-09-08T10:41:19.032Z,7.72
2023-09-08T10:43:47.206Z,10.88
2023-09-08T10:46:25.319Z,7.72
2023-09-08T10:48:56.033Z,11.48
2023-09-08T10:51:25.399Z,11.55
2023-09-08T10:53:52.600Z,9.35
2023-09-08T10:56:19.995Z,12.07
2023-09-08T10:58:53.596Z,12.98
2023-09-08T11:01:28.556Z,17.05
2023-09-08T11:03:56.243Z,18.00
2023-09-08T11:06:23.822Z,7.72
2023-09-08T11:08:56.969Z,28.45
2023-09-08T11:11:24.553Z,8.90
2023-09-08T11:13:52.066Z,7.80
2023-09-08T11:16:24.290Z,9.02
2023-09-08T11:18:52.758Z,15.38
2023-09-08T11:21:20.140Z,13.65
2023-09-08T11:23:47.486Z,9.00
2023-09-08T11:26:15.023Z,7.70
2023-09-08T11:28:46.482Z,8.73
2023-09-08T11:31:14.070Z,9.90
2023-09-08T11:33:41.546Z,8.82
2023-09-08T11:36:15.624Z,16.30
2023-09-08T11:38:46.540Z,7.68
2023-09-08T11:41:14.239Z,9.10
2023-09-08T11:43:41.784Z,7.40
2023-09-08T11:46:09.312Z,8.65
2023-09-08T11:48:37.107Z,8.60
2023-09-08T11:51:04.439Z,7.32
2023-09-08T11:53:34.717Z,8.30
2023-09-08T11:56:02.095Z,7.47
2023-09-08T11:58:30.571Z,6.43
2023-09-08T12:00:58.955Z,7.38
2023-09-08T12:03:26.287Z,8.45
2023-09-08T12:05:54.147Z,10.30
2023-09-08T12:08:21.559Z,6.32
2023-09-08T12:10:48.839Z,6.80
2023-09-08T12:13:22.474Z,9.13
2023-09-08T12:15:49.978Z,7.25
2023-09-08T12:18:17.942Z,7.05
2023-09-08T12:20:45.986Z,6.78
2023-09-08T12:23:21.501Z,6.80
2023-09-08T12:25:53.458Z,8.15
2023-09-08T12:28:22.496Z,10.93
2023-09-08T12:30:54.720Z,6.15
2023-09-08T12:33:23.715Z,8.20
2023-09-08T12:35:52.535Z,7.15
2023-09-08T12:38:20.084Z,7.68
2023-09-08T12:40:47.374Z,6.68
2023-09-08T12:43:24.452Z,8.52
2023-09-08T12:45:58.262Z,10.70
2023-09-08T12:48:26.437Z,6.00
2023-09-08T12:50:53.828Z,5.18
2023-09-08T12:53:21.778Z,6.18
2023-09-08T12:55:49.445Z,6.45
2023-09-08T12:58:17.654Z,9.07
2023-09-08T13:00:45.607Z,6.03
2023-09-08T13:03:13.023Z,5.35
2023-09-08T13:05:40.744Z,5.93
2023-09-08T13:08:08.279Z,7.03
2023-09-08T13:10:35.658Z,5.28
2023-09-08T13:13:03.035Z,8.95
2023-09-08T13:15:30.474Z,4.97
2023-09-08T13:17:58.216Z,5.60
2023-09-08T13:20:25.465Z,5.38
2023-09-08T13:22:52.934Z,5.25
2023-09-08T13:25:20.589Z,6.93
2023-09-08T13:27:49.527Z,7.55
2023-09-08T13:30:17.598Z,6.82
2023-09-08T13:32:46.214Z,6.78
2023-09-08T13:35:13.975Z,5.55
2023-09-08T13:37:41.503Z,6.53
2023-09-08T13:40:10.110Z,4.97
2023-09-08T13:42:38.089Z,5.78
2023-09-08T13:45:06.471Z,6.20
2023-09-08T13:47:34.519Z,4.82
2023-09-08T13:50:03.471Z,5.40
2023-09-08T13:52:37.389Z,8.25
2023-09-08T13:57:41.473Z,5.75
2023-09-08T14:00:16.385Z,6.20
2023-09-08T14:05:19.122Z,7.03
2023-09-08T14:07:55.129Z,10.45
2023-09-08T14:12:55.083Z,4.95
2023-09-08T14:15:22.851Z,8.73
2023-09-08T14:17:50.562Z,4.82
2023-09-08T14:20:17.945Z,5.82
2023-09-08T14:22:45.430Z,7.05
2023-09-08T14:25:12.824Z,5.25
2023-09-08T14:27:40.181Z,4.82
2023-09-08T14:30:08.042Z,6.65
2023-09-08T14:32:35.401Z,5.75
2023-09-08T14:35:02.757Z,7.00
2023-09-08T14:37:29.957Z,4.28
2023-09-08T14:39:57.110Z,5.78
2023-09-08T14:42:24.409Z,6.97
2023-09-08T14:44:52.801Z,5.57
2023-09-08T14:47:20.283Z,6.50
2023-09-08T14:49:47.761Z,6.38
2023-09-08T14:52:15.045Z,6.93
2023-09-08T14:54:42.354Z,7.78
2023-09-08T14:57:09.843Z,5.78
2023-09-08T14:59:37.400Z,6.80
2023-09-08T15:02:05.069Z,6.10
2023-09-08T15:04:32.323Z,7.28
2023-09-08T15:06:59.718Z,6.07
2023-09-08T15:09:27.262Z,5.75
2023-09-08T15:11:54.493Z,5.32
2023-09-08T15:14:21.753Z,5.63
2023-09-08T15:16:49.079Z,5.22
2023-09-08T15:19:16.376Z,5.60
2023-09-08T15:21:43.622Z,5.93
2023-09-08T15:24:11.001Z,5.47
2023-09-08T15:26:38.360Z,5.18
2023-09-08T15:29:06.449Z,6.65
2023-09-08T15:31:33.903Z,5.20
2023-09-08T15:34:01.299Z,6.82
2023-09-08T15:36:28.662Z,5.72
2023-09-08T15:38:55.912Z,7.18
2023-09-08T15:41:43.293Z,9.32
2023-09-08T15:44:14.750Z,6.32
2023-09-08T15:46:42.984Z,5.28
2023-09-08T15:49:10.409Z,14.45
2023-09-08T15:51:38.009Z,6.40
2023-09-08T15:54:07.296Z,5.43
2023-09-08T15:56:34.661Z,6.82
2023-09-08T15:59:01.897Z,10.15
2023-09-08T16:01:29.250Z,4.38
2023-09-08T16:03:56.593Z,6.90
2023-09-08T16:06:25.532Z,5.45
2023-09-08T16:08:52.901Z,8.35
2023-09-08T16:11:20.231Z,5.65
2023-09-08T16:13:47.517Z,6.47
2023-09-08T16:16:14.826Z,7.32
2023-09-08T16:18:42.238Z,8.40
2023-09-08T16:21:09.577Z,6.65
2023-09-08T16:23:37.139Z,7.60
2023-09-08T16:26:06.009Z,13.15
2023-09-08T16:28:35.933Z,7.78
2023-09-08T16:31:07.314Z,10.25
2023-09-08T16:33:37.962Z,8.27
2023-09-08T16:36:05.801Z,9.57
2023-09-08T16:38:35.746Z,14.40
2023-09-08T16:41:03.089Z,7.17
2023-09-08T16:43:30.342Z,7.32
2023-09-08T16:45:57.611Z,7.22
2023-09-08T16:48:25.587Z,5.30
2023-09-08T16:50:52.932Z,7.25
2023-09-08T16:53:21.066Z,5.93
2023-09-08T16:55:48.671Z,5.28
2023-09-08T16:58:15.959Z,6.78
2023-09-08T17:00:43.162Z,9.15
2023-09-08T17:03:11.231Z,9.55
2023-09-08T17:05:39.842Z,9.88
2023-09-08T17:08:08.221Z,5.97
2023-09-08T17:10:36.554Z,7.30
2023-09-08T17:13:03.983Z,8.15
2023-09-08T17:15:31.224Z,6.85
2023-09-08T17:17:58.525Z,8.75
2023-09-08T17:20:27.215Z,12.63
2023-09-08T17:22:54.849Z,8.25
2023-09-08T17:25:22.429Z,13.82
2023-09-08T17:27:49.957Z,7.70
2023-09-08T17:30:17.248Z,7.32
2023-09-08T17:32:44.632Z,12.20
2023-09-08T17:35:11.942Z,10.50
2023-09-08T17:37:39.380Z,22.23
2023-09-08T17:40:07.942Z,22.77
2023-09-08T17:42:35.244Z,21.13
2023-09-08T17:45:05.216Z,22.73
2023-09-08T17:47:32.509Z,21.73
2023-09-08T17:49:59.807Z,15.18
2023-09-08T17:52:27.155Z,13.85
2023-09-08T17:54:54.389Z,11.05
2023-09-08T17:57:21.558Z,10.32
2023-09-08T17:59:48.950Z,11.32
2023-09-08T18:02:16.192Z,8.82
2023-09-08T18:04:43.539Z,9.98
2023-09-08T18:07:10.977Z,11.80
2023-09-08T18:09:38.373Z,11.30
2023-09-08T18:12:26.590Z,10.60
2023-09-08T18:14:54.827Z,8.45
2023-09-08T18:17:22.556Z,10.63
2023-09-08T18:19:50.376Z,9.90
2023-09-08T18:22:17.889Z,9.10
2023-09-08T18:24:45.218Z,12.57
2023-09-08T18:27:12.374Z,9.80
2023-09-08T18:29:39.606Z,15.65
2023-09-08T18:32:06.994Z,11.38
2023-09-08T18:34:34.822Z,14.55
2023-09-08T18:37:02.070Z,13.40
2023-09-08T18:39:29.257Z,24.20
2023-09-08T18:41:57.003Z,26.42
2023-09-08T18:44:24.319Z,20.77
2023-09-08T18:46:51.693Z,13.43
2023-09-08T18:49:20.464Z,21.48
2023-09-08T18:51:47.796Z,13.10
2023-09-08T18:54:15.134Z,15.70
2023-09-08T18:56:42.375Z,21.58
2023-09-08T18:59:09.729Z,25.17
2023-09-08T19:01:36.948Z,22.02
2023-09-08T19:04:05.104Z,24.13
2023-09-08T19:06:32.689Z,30.52
2023-09-08T19:09:01.809Z,31.48
2023-09-08T19:11:29.493Z,25.70
2023-09-08T19:13:56.966Z,29.73
2023-09-08T19:16:24.235Z,29.98
2023-09-08T19:18:51.775Z,24.20
2023-09-08T19:21:19.029Z,24.05
2023-09-08T19:23:46.284Z,22.42
2023-09-08T19:26:13.552Z,26.02
2023-09-08T19:28:41.032Z,20.15
2023-09-08T19:31:08.276Z,15.98
2023-09-08T19:33:36.640Z,16.23
2023-09-08T19:36:04.236Z,13.48
2023-09-08T19:38:32.426Z,14.43
2023-09-08T19:41:04.037Z,13.18
2023-09-08T19:43:32.227Z,16.85
2023-09-08T19:46:06.543Z,17.48
2023-09-08T19:48:35.381Z,15.77
2023-09-08T19:51:04.404Z,14.30
2023-09-08T19:53:32.032Z,15.70
2023-09-08T19:55:59.437Z,13.27
2023-09-08T19:58:30.886Z,12.82
2023-09-08T20:01:10.475Z,13.73
2023-09-08T20:03:41.654Z,13.52
2023-09-08T20:11:08.617Z,15.68
2023-09-08T20:13:38.548Z,12.27
2023-09-08T20:16:08.261Z,13.27
2023-09-08T20:18:36.987Z,16.20
2023-09-08T20:21:06.337Z,13.68
2023-09-08T20:23:35.999Z,14.05
2023-09-08T20:26:04.277Z,14.23
2023-09-08T20:28:33.301Z,12.23
2023-09-08T20:31:15.800Z,15.25
2023-09-08T20:33:44.940Z,13.27
2023-09-08T20:36:13.205Z,11.90
2023-09-08T20:38:40.918Z,11.90
2023-09-08T20:41:11.052Z,13.93
2023-09-08T20:43:39.163Z,11.70
2023-09-08T20:46:07.443Z,11.52
2023-09-08T20:48:37.393Z,12.85
2023-09-08T20:51:12.683Z,12.40
2023-09-08T20:53:42.104Z,11.95
2023-09-08T20:56:11.189Z,13.13
2023-09-08T20:58:40.860Z,14.32
2023-09-08T21:01:08.832Z,10.30
2023-09-08T21:03:37.307Z,15.10
2023-09-08T21:06:05.075Z,14.07
2023-09-08T21:08:32.496Z,13.23
2023-09-08T21:10:59.819Z,12.75
2023-09-08T21:13:27.698Z,11.07
2023-09-08T21:15:55.150Z,9.15
2023-09-08T21:18:22.964Z,10.70
2023-09-08T21:20:50.368Z,12.23
2023-09-08T21:23:18.343Z,10.93
2023-09-08T21:25:45.808Z,12.55
2023-09-08T21:28:13.141Z,12.73
2023-09-08T21:30:40.758Z,14.65
2023-09-08T21:33:08.084Z,10.68
2023-09-08T21:35:35.524Z,14.00
2023-09-08T21:38:02.798Z,13.60
2023-09-08T21:40:30.202Z,12.23
2023-09-08T21:42:58.112Z,15.80
2023-09-08T21:45:25.407Z,18.10
2023-09-08T21:47:53.717Z,14.20
2023-09-08T21:50:23.094Z,13.32
2023-09-08T21:52:53.734Z,13.93
2023-09-08T21:55:22.665Z,12.38
2023-09-08T21:57:50.060Z,11.15
2023-09-08T22:00:18.304Z,13.52
2023-09-08T22:02:45.841Z,17.60
2023-09-08T22:05:13.806Z,11.27
2023-09-08T22:07:41.289Z,12.85
2023-09-08T22:10:09.029Z,11.18
2023-09-08T22:12:36.464Z,11.70
2023-09-08T22:15:04.559Z,9.18
2023-09-08T22:17:33.428Z,12.27
2023-09-08T22:20:14.010Z,14.40
2023-09-08T22:22:42.268Z,10.23
2023-09-08T22:25:11.505Z,10.90
2023-09-08T22:27:39.404Z,11.95
2023-09-08T22:30:27.222Z,16.98
2023-09-08T22:32:54.552Z,12.80
2023-09-08T22:35:21.800Z,13.15
2023-09-08T22:37:50.757Z,17.42
2023-09-08T22:40:19.831Z,12.38
2023-09-08T22:42:47.124Z,13.52
2023-09-08T22:45:14.421Z,16.05
2023-09-08T22:47:41.616Z,11.07
2023-09-08T22:50:10.820Z,10.27
2023-09-08T22:52:41.445Z,12.18
2023-09-08T22:55:23.528Z,13.63
2023-09-08T22:57:52.433Z,11.68
2023-09-08T23:00:20.050Z,10.35
2023-09-08T23:02:48.350Z,11.40
2023-09-08T23:05:15.929Z,13.30
2023-09-08T23:07:44.197Z,11.32
2023-09-08T23:10:11.654Z,14.27
2023-09-08T23:12:39.172Z,9.23
2023-09-08T23:15:07.964Z,11.73
2023-09-08T23:17:35.479Z,11.68
2023-09-08T23:20:08.336Z,11.35
2023-09-08T23:22:36.683Z,14.07
2023-09-08T23:25:07.219Z,12.45
2023-09-08T23:27:34.737Z,17.03
2023-09-08T23:30:02.195Z,10.02
2023-09-08T23:32:29.619Z,12.15
2023-09-08T23:34:57.067Z,10.93
2023-09-08T23:37:24.452Z,11.13
2023-09-08T23:39:51.674Z,13.70
2023-09-08T23:42:18.925Z,11.88
2023-09-08T23:44:46.056Z,12.93
2023-09-08T23:47:14.140Z,15.48
2023-09-08T23:49:41.600Z,11.85
2023-09-08T23:52:08.759Z,15.65
2023-09-08T23:54:36.037Z,12.25
2023-09-08T23:57:05.431Z,12.18
2023-09-08T23:59:32.791Z,11.80
